createdAt,value
2019-02-23T00:02:07.156Z,11.70
2019-02-23T00:04:35.835Z,9.97
2019-02-23T00:07:04.607Z,12.10
2019-02-23T00:09:33.139Z,12.77
2019-02-23T00:12:01.644Z,12.23
2019-02-23T00:14:30.207Z,11.83
2019-02-23T00:16:58.742Z,10.73
2019-02-23T00:19:27.228Z,12.07
2019-02-23T00:21:55.690Z,16.83
2019-02-23T00:24:24.174Z,11.13
2019-02-23T00:26:52.646Z,12.03
2019-02-23T00:29:21.137Z,10.63
2019-02-23T00:31:49.668Z,11.53
2019-02-23T00:34:18.155Z,11.03
2019-02-23T00:36:46.615Z,11.10
2019-02-23T00:39:15.106Z,10.63
2019-02-23T00:41:43.663Z,10.70
2019-02-23T00:44:12.275Z,12.20
2019-02-23T00:46:40.762Z,11.10
2019-02-23T00:49:09.250Z,11.43
2019-02-23T00:51:37.778Z,13.27
2019-02-23T00:54:06.337Z,11.83
2019-02-23T00:56:34.897Z,13.33
2019-02-23T00:59:03.434Z,12.63
2019-02-23T01:01:31.903Z,12.23
2019-02-23T01:04:00.395Z,12.10
2019-02-23T01:06:28.863Z,11.73
2019-02-23T01:08:57.325Z,12.97
2019-02-23T01:11:25.887Z,15.10
2019-02-23T01:13:54.477Z,13.43
2019-02-23T01:16:23.043Z,13.57
2019-02-23T01:18:51.578Z,11.87
2019-02-23T01:21:20.050Z,13.13
2019-02-23T01:23:48.600Z,12.83
2019-02-23T01:26:17.134Z,14.97
2019-02-23T01:28:45.643Z,14.63
2019-02-23T01:31:14.103Z,14.33
2019-02-23T01:33:42.815Z,14.17
2019-02-23T01:36:11.439Z,13.77
2019-02-23T01:38:39.900Z,14.07
2019-02-23T01:41:08.536Z,13.40
2019-02-23T01:43:37.074Z,13.33
2019-02-23T01:46:05.634Z,15.00
2019-02-23T01:48:34.099Z,14.00
2019-02-23T01:51:02.650Z,13.40
2019-02-23T01:53:31.120Z,15.93
2019-02-23T01:55:59.799Z,14.00
2019-02-23T01:58:28.337Z,14.93
2019-02-23T02:00:56.983Z,13.80
2019-02-23T02:03:25.659Z,12.20
2019-02-23T02:05:54.118Z,14.87
2019-02-23T02:08:22.675Z,16.33
2019-02-23T02:10:51.139Z,16.83
2019-02-23T02:13:19.699Z,15.00
2019-02-23T02:15:48.498Z,13.23
2019-02-23T02:18:17.060Z,15.43
2019-02-23T02:20:45.522Z,13.83
2019-02-23T02:23:14.006Z,13.83
2019-02-23T02:25:42.535Z,14.73
2019-02-23T02:28:11.025Z,13.67
2019-02-23T02:30:39.625Z,16.30
2019-02-23T02:33:08.097Z,16.27
2019-02-23T02:35:36.659Z,15.90
2019-02-23T02:38:05.131Z,19.50
2019-02-23T02:40:33.868Z,15.03
2019-02-23T02:43:02.404Z,13.80
2019-02-23T02:45:30.964Z,14.17
2019-02-23T02:47:59.424Z,13.53
2019-02-23T02:50:27.887Z,14.10
2019-02-23T02:52:56.472Z,13.97
2019-02-23T02:55:24.995Z,13.47
2019-02-23T02:57:53.482Z,13.10
2019-02-23T03:00:22.116Z,15.20
2019-02-23T03:02:50.679Z,17.97
2019-02-23T03:05:19.154Z,18.17
2019-02-23T03:07:47.703Z,16.27
2019-02-23T03:10:16.176Z,18.03
2019-02-23T03:12:44.636Z,16.00
2019-02-23T03:15:13.272Z,16.17
2019-02-23T03:17:41.806Z,18.83
2019-02-23T03:20:10.368Z,16.20
2019-02-23T03:22:38.938Z,16.57
2019-02-23T03:25:07.947Z,16.27
2019-02-23T03:27:36.513Z,17.90
2019-02-23T03:30:07.696Z,17.20
2019-02-23T03:32:36.264Z,16.43
2019-02-23T03:35:05.366Z,17.00
2019-02-23T03:37:33.830Z,17.10
2019-02-23T03:40:02.298Z,17.37
2019-02-23T03:42:30.786Z,20.23
2019-02-23T03:44:59.274Z,17.70
2019-02-23T03:47:27.765Z,17.10
2019-02-23T03:49:56.339Z,17.00
2019-02-23T03:52:24.947Z,16.70
2019-02-23T03:54:53.513Z,17.13
2019-02-23T03:57:22.047Z,18.83
2019-02-23T03:59:50.620Z,16.97
2019-02-23T04:02:19.154Z,19.13
2019-02-23T04:04:47.646Z,20.13
2019-02-23T04:07:16.118Z,18.10
2019-02-23T04:09:44.780Z,19.90
2019-02-23T04:12:13.248Z,19.47
2019-02-23T04:14:41.782Z,17.77
2019-02-23T04:17:10.347Z,16.83
2019-02-23T04:19:38.979Z,18.07
2019-02-23T04:22:07.656Z,18.43
2019-02-23T04:24:36.217Z,18.50
2019-02-23T04:27:04.856Z,22.40
2019-02-23T04:29:33.423Z,19.83
2019-02-23T04:32:01.940Z,20.37
2019-02-23T04:34:30.559Z,21.47
2019-02-23T04:36:59.127Z,20.33
2019-02-23T04:39:27.592Z,18.57
2019-02-23T04:41:56.155Z,19.83
2019-02-23T04:44:24.727Z,17.17
2019-02-23T04:46:53.218Z,19.60
2019-02-23T04:49:21.691Z,20.50
2019-02-23T04:51:50.294Z,18.63
2019-02-23T04:54:18.843Z,19.57
2019-02-23T04:56:47.380Z,17.13
2019-02-23T04:59:15.994Z,17.43
2019-02-23T05:01:44.487Z,18.53
2019-02-23T05:04:12.974Z,19.40
2019-02-23T05:06:41.447Z,19.63
2019-02-23T05:09:09.951Z,19.07
2019-02-23T05:11:38.483Z,18.07
2019-02-23T05:14:07.079Z,20.73
2019-02-23T05:16:35.647Z,17.90
2019-02-23T05:19:04.111Z,18.80
2019-02-23T05:21:32.612Z,19.20
2019-02-23T05:24:01.155Z,21.47
2019-02-23T05:26:29.728Z,18.80
2019-02-23T05:28:58.199Z,18.97
2019-02-23T05:31:26.682Z,20.07
2019-02-23T05:33:55.231Z,21.03
2019-02-23T05:36:23.728Z,23.03
2019-02-23T05:38:52.259Z,20.70
2019-02-23T05:41:20.748Z,20.93
2019-02-23T05:43:49.302Z,17.40
2019-02-23T05:46:17.766Z,26.70
2019-02-23T05:48:46.354Z,25.00
2019-02-23T05:51:14.819Z,22.00
2019-02-23T05:53:43.311Z,21.27
2019-02-23T05:56:15.998Z,22.40
2019-02-23T05:58:42.130Z,19.23
2019-02-23T06:01:10.594Z,21.83
2019-02-23T06:03:39.094Z,21.97
2019-02-23T06:06:07.738Z,21.70
2019-02-23T06:08:36.231Z,19.17
2019-02-23T06:11:04.778Z,23.23
2019-02-23T06:13:33.367Z,21.83
2019-02-23T06:16:01.948Z,21.97
2019-02-23T06:18:30.495Z,22.30
2019-02-23T06:20:59.033Z,22.27
2019-02-23T06:23:27.704Z,21.30
2019-02-23T06:25:56.249Z,21.40
2019-02-23T06:28:24.807Z,22.83
2019-02-23T06:30:53.283Z,24.37
2019-02-23T06:33:21.840Z,20.77
2019-02-23T06:35:50.387Z,23.90
2019-02-23T06:38:18.883Z,23.67
2019-02-23T06:40:47.422Z,23.03
2019-02-23T06:43:15.885Z,22.37
2019-02-23T06:45:44.374Z,23.73
2019-02-23T06:48:12.839Z,22.03
2019-02-23T06:50:41.338Z,27.63
2019-02-23T06:53:09.935Z,21.80
2019-02-23T06:55:38.403Z,21.17
2019-02-23T06:58:06.895Z,21.17
2019-02-23T07:00:35.434Z,23.23
2019-02-23T07:03:03.921Z,23.07
2019-02-23T07:05:32.392Z,22.47
2019-02-23T07:08:00.960Z,22.00
2019-02-23T07:10:29.510Z,22.50
2019-02-23T07:12:57.999Z,21.30
2019-02-23T07:15:26.459Z,19.97
2019-02-23T07:17:54.951Z,20.97
2019-02-23T07:20:23.419Z,24.57
2019-02-23T07:22:52.003Z,20.50
2019-02-23T07:25:20.465Z,23.23
2019-02-23T07:27:48.931Z,20.40
2019-02-23T07:30:17.494Z,19.70
2019-02-23T07:32:46.070Z,20.27
2019-02-23T07:35:14.635Z,21.03
2019-02-23T07:37:43.172Z,19.30
2019-02-23T07:40:13.779Z,19.67
2019-02-23T07:42:42.247Z,21.20
2019-02-23T07:45:11.176Z,20.30
2019-02-23T07:47:39.646Z,20.87
2019-02-23T07:50:15.516Z,20.03
2019-02-23T07:52:44.127Z,19.23
2019-02-23T07:55:12.615Z,21.00
2019-02-23T07:57:41.147Z,19.37
2019-02-23T08:00:12.263Z,18.30
2019-02-23T08:02:40.762Z,20.50
2019-02-23T08:05:10.344Z,17.63
2019-02-23T08:07:39.883Z,19.10
2019-02-23T08:10:10.866Z,20.63
2019-02-23T08:12:39.367Z,21.80
2019-02-23T08:15:10.048Z,17.57
2019-02-23T08:17:38.622Z,17.80
2019-02-23T08:20:13.927Z,20.33
2019-02-23T08:22:42.419Z,21.77
2019-02-23T08:25:12.762Z,20.37
2019-02-23T08:27:41.328Z,19.50
2019-02-23T08:30:13.179Z,18.47
2019-02-23T08:32:41.687Z,17.57
2019-02-23T08:35:10.257Z,20.77
2019-02-23T08:37:38.935Z,18.90
2019-02-23T08:40:17.519Z,19.80
2019-02-23T08:42:46.328Z,21.17
2019-02-23T08:45:14.867Z,18.77
2019-02-23T08:47:43.507Z,17.67
2019-02-23T08:50:14.211Z,23.93
2019-02-23T08:52:49.160Z,20.77
2019-02-23T08:55:12.994Z,21.17
2019-02-23T08:57:41.739Z,23.20
2019-02-23T09:00:20.703Z,23.70
2019-02-23T09:02:49.294Z,19.50
2019-02-23T09:05:17.911Z,20.10
2019-02-23T09:07:46.406Z,21.83
2019-02-23T09:10:15.550Z,20.47
2019-02-23T09:12:44.271Z,19.30
2019-02-23T09:15:12.878Z,21.20
2019-02-23T09:17:41.482Z,19.47
2019-02-23T09:20:11.772Z,18.30
2019-02-23T09:22:40.425Z,18.07
2019-02-23T09:25:10.646Z,20.77
2019-02-23T09:27:39.331Z,21.00
2019-02-23T09:30:14.797Z,19.20
2019-02-23T09:32:43.416Z,18.97
2019-02-23T09:35:12.042Z,19.67
2019-02-23T09:37:40.507Z,19.73
2019-02-23T09:40:14.798Z,21.73
2019-02-23T09:42:43.272Z,19.70
2019-02-23T09:45:12.602Z,19.03
2019-02-23T09:47:41.147Z,20.00
2019-02-23T09:50:09.835Z,17.70
2019-02-23T09:52:38.487Z,22.67
2019-02-23T09:55:08.492Z,19.33
2019-02-23T09:57:37.127Z,21.57
2019-02-23T10:00:11.440Z,20.17
2019-02-23T10:02:40.001Z,19.97
2019-02-23T10:05:09.218Z,19.90
2019-02-23T10:07:37.822Z,19.63
2019-02-23T10:10:10.839Z,19.50
2019-02-23T10:12:39.474Z,18.20
2019-02-23T10:15:10.120Z,20.97
2019-02-23T10:17:38.739Z,21.50
2019-02-23T10:20:12.138Z,19.67
2019-02-23T10:22:40.603Z,19.37
2019-02-23T10:25:09.347Z,19.63
2019-02-23T10:27:37.896Z,20.07
2019-02-23T10:30:14.031Z,18.07
2019-02-23T10:32:42.575Z,21.13
2019-02-23T10:35:12.683Z,20.30
2019-02-23T10:37:41.295Z,21.00
2019-02-23T10:40:11.429Z,20.90
2019-02-23T10:42:40.077Z,22.57
2019-02-23T10:45:13.455Z,19.13
2019-02-23T10:47:42.090Z,19.30
2019-02-23T10:50:12.198Z,20.67
2019-02-23T10:52:40.787Z,24.10
2019-02-23T10:55:11.699Z,22.67
2019-02-23T10:57:40.258Z,20.50
2019-02-23T11:00:22.889Z,20.47
2019-02-23T11:02:51.547Z,18.10
2019-02-23T11:05:20.712Z,19.00
2019-02-23T11:07:49.950Z,20.63
2019-02-23T11:10:19.126Z,18.57
2019-02-23T11:12:47.603Z,19.27
2019-02-23T11:15:18.154Z,19.60
2019-02-23T11:17:46.884Z,18.23
2019-02-23T11:20:16.487Z,18.53
2019-02-23T11:22:45.053Z,17.90
2019-02-23T11:25:13.763Z,17.90
2019-02-23T11:27:42.302Z,17.73
2019-02-23T11:30:13.126Z,18.70
2019-02-23T11:32:41.735Z,16.50
2019-02-23T11:35:12.446Z,19.43
2019-02-23T11:37:41.079Z,17.73
2019-02-23T11:40:11.588Z,17.53
2019-02-23T11:42:40.155Z,15.77
2019-02-23T11:45:10.371Z,19.23
2019-02-23T11:47:38.867Z,17.77
2019-02-23T11:50:10.347Z,17.87
2019-02-23T11:52:39.564Z,18.90
2019-02-23T11:55:08.543Z,17.60
2019-02-23T11:57:37.079Z,18.37
2019-02-23T12:00:11.487Z,25.27
2019-02-23T12:02:39.979Z,16.70
2019-02-23T12:05:09.700Z,18.53
2019-02-23T12:07:38.339Z,14.80
2019-02-23T12:10:12.330Z,17.17
2019-02-23T12:12:40.799Z,23.77
2019-02-23T12:15:10.131Z,15.17
2019-02-23T12:17:38.669Z,16.60
2019-02-23T12:20:09.850Z,15.83
2019-02-23T12:22:38.343Z,15.57
2019-02-23T12:25:07.975Z,13.73
2019-02-23T12:27:36.558Z,14.87
2019-02-23T12:30:10.103Z,17.47
2019-02-23T12:32:38.574Z,14.63
2019-02-23T12:35:09.691Z,15.73
2019-02-23T12:37:38.175Z,16.13
2019-02-23T12:40:08.122Z,14.20
2019-02-23T12:42:36.722Z,12.23
2019-02-23T12:45:07.510Z,13.70
2019-02-23T12:47:36.175Z,14.63
2019-02-23T12:50:07.564Z,13.83
2019-02-23T12:52:36.218Z,16.30
2019-02-23T12:55:06.982Z,19.90
2019-02-23T12:57:35.483Z,13.77
2019-02-23T13:00:06.831Z,18.30
2019-02-23T13:02:35.318Z,14.23
2019-02-23T13:05:04.899Z,16.30
2019-02-23T13:07:33.407Z,18.07
2019-02-23T13:10:01.931Z,14.37
2019-02-23T13:12:36.459Z,13.60
2019-02-23T13:15:22.767Z,16.27
2019-02-23T13:18:16.181Z,14.70
2019-02-23T13:20:56.450Z,15.93
2019-02-23T13:23:42.890Z,15.17
2019-02-23T13:26:17.354Z,13.00
2019-02-23T13:29:07.008Z,14.30
2019-02-23T13:31:58.070Z,13.20
2019-02-23T13:34:38.510Z,12.53
2019-02-23T13:37:12.484Z,18.33
2019-02-23T13:40:00.767Z,15.63
2019-02-23T13:42:38.247Z,15.63
2019-02-23T13:45:09.795Z,13.43
2019-02-23T13:47:50.283Z,14.23
2019-02-23T13:50:30.188Z,18.20
2019-02-23T13:53:01.756Z,16.23
2019-02-23T13:55:48.292Z,12.47
2019-02-23T13:58:22.858Z,13.67
2019-02-23T14:01:27.699Z,12.03
2019-02-23T14:04:32.448Z,13.17
2019-02-23T14:07:24.035Z,12.70
2019-02-23T14:10:12.055Z,14.63
2019-02-23T14:12:46.249Z,13.53
2019-02-23T14:15:45.339Z,11.80
2019-02-23T14:18:22.516Z,16.13
2019-02-23T14:20:54.156Z,16.10
2019-02-23T14:23:37.987Z,14.93
2019-02-23T14:26:15.651Z,14.23
2019-02-23T14:29:17.639Z,12.47
2019-02-23T14:31:58.496Z,14.63
2019-02-23T14:34:30.111Z,15.43
2019-02-23T14:37:27.067Z,15.13
2019-02-23T14:40:10.772Z,15.73
2019-02-23T14:42:42.431Z,15.43
2019-02-23T14:45:53.086Z,13.07
2019-02-23T14:48:48.893Z,13.50
2019-02-23T14:51:26.012Z,10.73
2019-02-23T14:54:03.600Z,13.67
2019-02-23T14:56:56.377Z,12.67
2019-02-23T14:59:33.806Z,12.83
2019-02-23T15:02:26.296Z,14.53
2019-02-23T15:04:57.863Z,13.97
2019-02-23T15:07:35.127Z,11.90
2019-02-23T15:10:23.191Z,12.03
2019-02-23T15:13:15.786Z,11.93
2019-02-23T15:15:59.483Z,11.03
2019-02-23T15:18:50.439Z,13.20
2019-02-23T15:21:24.983Z,11.50
2019-02-23T15:24:17.431Z,12.23
2019-02-23T15:27:14.803Z,12.60
2019-02-23T15:29:57.967Z,14.17
2019-02-23T15:33:05.223Z,14.50
2019-02-23T15:35:52.135Z,13.03
2019-02-23T15:38:39.132Z,10.27
2019-02-23T15:41:23.076Z,11.10
2019-02-23T15:44:07.127Z,11.70
2019-02-23T15:47:03.794Z,12.93
2019-02-23T15:49:32.925Z,11.07
2019-02-23T15:52:02.844Z,11.93
2019-02-23T15:54:31.447Z,10.23
2019-02-23T15:57:00.126Z,13.57
2019-02-23T15:59:28.623Z,10.20
2019-02-23T16:01:57.156Z,13.60
2019-02-23T16:04:25.730Z,11.87
2019-02-23T16:06:54.270Z,12.27
2019-02-23T16:09:22.875Z,11.13
2019-02-23T16:11:51.455Z,14.03
2019-02-23T16:14:19.915Z,12.30
2019-02-23T16:16:48.378Z,11.27
2019-02-23T16:19:17.019Z,9.83
2019-02-23T16:21:45.669Z,12.63
2019-02-23T16:24:14.227Z,10.47
2019-02-23T16:26:42.927Z,9.93
2019-02-23T16:29:11.411Z,13.40
2019-02-23T16:31:40.034Z,11.77
2019-02-23T16:34:08.634Z,12.67
2019-02-23T16:36:37.192Z,10.87
2019-02-23T16:39:09.099Z,10.57
2019-02-23T16:41:37.661Z,12.80
2019-02-23T16:44:06.203Z,10.67
2019-02-23T16:46:34.787Z,10.77
2019-02-23T16:49:03.318Z,10.07
2019-02-23T16:51:32.002Z,10.10
2019-02-23T16:54:00.483Z,13.47
2019-02-23T16:56:28.938Z,9.80
2019-02-23T16:58:57.530Z,10.70
2019-02-23T17:01:26.650Z,10.83
2019-02-23T17:03:55.270Z,11.40
2019-02-23T17:06:23.754Z,12.60
2019-02-23T17:09:11.799Z,10.53
2019-02-23T17:11:40.471Z,12.70
2019-02-23T17:14:08.999Z,10.17
2019-02-23T17:16:37.491Z,13.47
2019-02-23T17:19:06.019Z,11.93
2019-02-23T17:21:34.504Z,12.20
2019-02-23T17:24:03.138Z,10.63
2019-02-23T17:26:31.636Z,12.53
2019-02-23T17:29:00.172Z,10.27
2019-02-23T17:31:28.832Z,10.37
2019-02-23T17:33:57.462Z,9.60
2019-02-23T17:36:25.979Z,9.20
2019-02-23T17:38:54.467Z,10.63
2019-02-23T17:41:22.938Z,12.93
2019-02-23T17:43:54.095Z,9.67
2019-02-23T17:46:21.775Z,14.07
2019-02-23T17:48:50.337Z,9.93
2019-02-23T17:51:19.000Z,10.27
2019-02-23T17:53:47.947Z,9.37
2019-02-23T17:56:16.591Z,11.33
2019-02-23T17:58:45.114Z,12.87
2019-02-23T18:01:13.700Z,10.03
2019-02-23T18:03:42.328Z,9.93
2019-02-23T18:06:10.831Z,12.27
2019-02-23T18:08:39.490Z,11.00
2019-02-23T18:11:08.073Z,12.30
2019-02-23T18:13:36.724Z,10.63
2019-02-23T18:16:05.229Z,10.77
2019-02-23T18:18:33.754Z,13.63
2019-02-23T18:21:02.235Z,10.53
2019-02-23T18:23:30.742Z,13.57
2019-02-23T18:25:59.303Z,11.57
2019-02-23T18:28:27.790Z,11.93
2019-02-23T18:30:56.833Z,10.87
2019-02-23T18:33:25.490Z,10.73
2019-02-23T18:35:53.979Z,17.03
2019-02-23T18:38:22.463Z,13.97
2019-02-23T18:41:10.335Z,15.33
2019-02-23T18:43:38.818Z,11.60
2019-02-23T18:46:07.283Z,12.67
2019-02-23T18:48:37.042Z,12.20
2019-02-23T18:51:05.507Z,16.10
2019-02-23T18:53:33.999Z,11.97
2019-02-23T18:56:02.895Z,11.93
2019-02-23T18:58:31.388Z,15.37
2019-02-23T19:00:59.866Z,15.93
2019-02-23T19:03:28.326Z,14.23
2019-02-23T19:05:56.906Z,15.80
2019-02-23T19:08:25.447Z,14.97
2019-02-23T19:10:55.745Z,12.57
2019-02-23T19:13:24.134Z,12.63
2019-02-23T19:15:52.763Z,12.17
2019-02-23T19:18:21.226Z,14.87
2019-02-23T19:21:02.335Z,17.07
2019-02-23T19:23:30.831Z,14.27
2019-02-23T19:25:59.295Z,16.83
2019-02-23T19:28:27.765Z,14.83
2019-02-23T19:30:56.342Z,17.53
2019-02-23T19:33:24.805Z,14.23
2019-02-23T19:35:53.338Z,21.07
2019-02-23T19:38:21.831Z,17.27
2019-02-23T19:40:50.308Z,15.57
2019-02-23T19:43:18.943Z,17.23
2019-02-23T19:45:47.410Z,17.37
2019-02-23T19:48:16.003Z,15.27
2019-02-23T19:50:47.991Z,16.77
2019-02-23T19:53:16.523Z,14.47
2019-02-23T19:55:45.175Z,15.07
2019-02-23T19:58:13.634Z,13.70
2019-02-23T20:00:42.127Z,14.47
2019-02-23T20:03:10.586Z,15.90
2019-02-23T20:05:39.074Z,14.93
2019-02-23T20:08:07.616Z,15.07
2019-02-23T20:10:36.098Z,13.73
2019-02-23T20:13:04.604Z,16.27
2019-02-23T20:15:33.077Z,16.20
2019-02-23T20:18:01.610Z,13.67
2019-02-23T20:20:30.103Z,14.63
2019-02-23T20:22:58.567Z,13.77
2019-02-23T20:25:27.107Z,14.17
2019-02-23T20:27:55.958Z,13.70
2019-02-23T20:30:24.460Z,15.23
2019-02-23T20:32:53.022Z,12.20
2019-02-23T20:35:21.631Z,14.63
2019-02-23T20:37:50.262Z,14.23
2019-02-23T20:40:18.723Z,15.80
2019-02-23T20:42:47.206Z,13.27
2019-02-23T20:45:15.766Z,12.43
2019-02-23T20:47:44.374Z,12.13
2019-02-23T20:50:12.923Z,13.70
2019-02-23T20:52:41.618Z,16.50
2019-02-23T20:55:10.287Z,14.97
2019-02-23T20:57:38.747Z,16.53
2019-02-23T21:00:09.855Z,14.10
2019-02-23T21:02:38.338Z,14.70
2019-02-23T21:05:10.015Z,13.30
2019-02-23T21:07:38.959Z,13.83
2019-02-23T21:10:09.556Z,16.70
2019-02-23T21:12:38.042Z,15.00
2019-02-23T21:15:09.510Z,14.70
2019-02-23T21:17:38.002Z,14.67
2019-02-23T21:20:08.728Z,17.23
2019-02-23T21:22:37.979Z,14.17
2019-02-23T21:25:07.684Z,13.60
2019-02-23T21:27:36.328Z,14.00
2019-02-23T21:30:07.457Z,13.70
2019-02-23T21:32:36.007Z,13.67
2019-02-23T21:35:05.931Z,13.93
2019-02-23T21:37:34.395Z,13.20
2019-02-23T21:40:03.129Z,16.47
2019-02-23T21:42:31.603Z,12.93
2019-02-23T21:45:00.151Z,13.70
2019-02-23T21:47:28.836Z,13.33
2019-02-23T21:49:57.298Z,13.10
2019-02-23T21:52:25.774Z,14.23
2019-02-23T21:54:54.371Z,14.43
2019-02-23T21:57:22.926Z,13.87
2019-02-23T21:59:51.438Z,15.97
2019-02-23T22:02:20.003Z,14.60
2019-02-23T22:04:48.576Z,15.33
2019-02-23T22:07:17.119Z,15.70
2019-02-23T22:09:45.659Z,15.00
2019-02-23T22:12:14.226Z,14.33
2019-02-23T22:14:42.759Z,12.70
2019-02-23T22:17:11.225Z,15.20
2019-02-23T22:19:39.720Z,13.87
2019-02-23T22:22:08.458Z,14.77
2019-02-23T22:24:36.915Z,13.03
2019-02-23T22:27:05.408Z,14.13
2019-02-23T22:29:33.956Z,14.60
2019-02-23T22:32:02.579Z,13.60
2019-02-23T22:34:31.183Z,12.17
2019-02-23T22:36:59.643Z,13.67
2019-02-23T22:39:28.135Z,13.50
2019-02-23T22:41:56.687Z,12.63
2019-02-23T22:44:25.182Z,13.10
2019-02-23T22:46:53.650Z,13.00
2019-02-23T22:49:22.135Z,12.80
2019-02-23T22:51:50.598Z,14.47
2019-02-23T22:54:19.103Z,12.57
2019-02-23T22:56:47.567Z,11.93
2019-02-23T22:59:16.069Z,15.97
2019-02-23T23:01:45.119Z,10.93
2019-02-23T23:04:13.708Z,13.57
2019-02-23T23:06:42.262Z,11.83
2019-02-23T23:09:12.530Z,12.10
2019-02-23T23:11:41.014Z,14.83
2019-02-23T23:14:09.652Z,14.73
2019-02-23T23:16:38.145Z,13.43
2019-02-23T23:19:06.768Z,11.40
2019-02-23T23:21:35.255Z,14.10
2019-02-23T23:24:03.719Z,11.87
2019-02-23T23:26:32.204Z,12.13
2019-02-23T23:29:00.779Z,21.17
2019-02-23T23:31:29.310Z,14.60
2019-02-23T23:33:57.775Z,11.13
2019-02-23T23:36:26.338Z,13.40
2019-02-23T23:38:54.804Z,13.43
2019-02-23T23:41:23.366Z,11.60
2019-02-23T23:43:51.931Z,9.63
2019-02-23T23:46:20.395Z,11.30
2019-02-23T23:48:48.859Z,11.37
2019-02-23T23:51:17.342Z,12.37
2019-02-23T23:53:45.827Z,11.20
2019-02-23T23:56:14.311Z,11.80
2019-02-23T23:58:42.795Z,10.17
